sensor_id;sensor_type;location;lat;lon;timestamp;P1;durP1;ratioP1;P2;durP2;ratioP2
9848;SDS011;4963;51.444;6.528;2022-10-16T00:00:44;5.80;;;3.83;;
9848;SDS011;4963;51.444;6.528;2022-10-16T00:03:11;7.33;;;4.23;;
9848;SDS011;4963;51.444;6.528;2022-10-16T00:05:38;4.10;;;3.70;;
9848;SDS011;4963;51.444;6.528;2022-10-16T00:08:06;5.10;;;3.53;;
9848;SDS011;4963;51.444;6.528;2022-10-16T00:10:34;5.47;;;3.47;;
9848;SDS011;4963;51.444;6.528;2022-10-16T00:13:02;5.60;;;3.60;;
9848;SDS011;4963;51.444;6.528;2022-10-16T00:15:29;5.40;;;3.57;;
9848;SDS011;4963;51.444;6.528;2022-10-16T00:17:58;6.57;;;4.00;;
9848;SDS011;4963;51.444;6.528;2022-10-16T00:20:25;6.30;;;3.83;;
9848;SDS011;4963;51.444;6.528;2022-10-16T00:22:52;9.77;;;3.77;;
9848;SDS011;4963;51.444;6.528;2022-10-16T00:25:18;6.90;;;4.03;;
9848;SDS011;4963;51.444;6.528;2022-10-16T00:27:45;7.17;;;3.90;;
9848;SDS011;4963;51.444;6.528;2022-10-16T00:30:13;6.77;;;3.40;;
9848;SDS011;4963;51.444;6.528;2022-10-16T00:32:40;6.40;;;3.63;;
9848;SDS011;4963;51.444;6.528;2022-10-16T00:35:07;6.00;;;4.30;;
9848;SDS011;4963;51.444;6.528;2022-10-16T00:37:34;6.70;;;3.60;;
9848;SDS011;4963;51.444;6.528;2022-10-16T00:40:01;4.17;;;3.37;;
9848;SDS011;4963;51.444;6.528;2022-10-16T00:42:28;5.37;;;3.50;;
9848;SDS011;4963;51.444;6.528;2022-10-16T00:44:55;5.20;;;3.50;;
9848;SDS011;4963;51.444;6.528;2022-10-16T00:47:26;7.00;;;3.57;;
9848;SDS011;4963;51.444;6.528;2022-10-16T00:49:58;5.07;;;3.40;;
9848;SDS011;4963;51.444;6.528;2022-10-16T00:52:27;5.53;;;3.93;;
9848;SDS011;4963;51.444;6.528;2022-10-16T00:54:54;5.27;;;3.50;;
9848;SDS011;4963;51.444;6.528;2022-10-16T00:57:23;6.03;;;3.47;;
9848;SDS011;4963;51.444;6.528;2022-10-16T00:59:51;4.80;;;3.93;;
9848;SDS011;4963;51.444;6.528;2022-10-16T01:02:18;4.00;;;3.37;;
9848;SDS011;4963;51.444;6.528;2022-10-16T01:04:47;5.17;;;3.97;;
9848;SDS011;4963;51.444;6.528;2022-10-16T01:07:18;4.03;;;3.57;;
9848;SDS011;4963;51.444;6.528;2022-10-16T01:09:54;5.40;;;3.20;;
9848;SDS011;4963;51.444;6.528;2022-10-16T01:12:32;4.83;;;2.97;;
9848;SDS011;4963;51.444;6.528;2022-10-16T01:15:06;7.33;;;3.10;;
9848;SDS011;4963;51.444;6.528;2022-10-16T01:17:38;3.63;;;3.10;;
9848;SDS011;4963;51.444;6.528;2022-10-16T01:20:11;3.23;;;2.80;;
9848;SDS011;4963;51.444;6.528;2022-10-16T01:22:49;3.63;;;2.77;;
9848;SDS011;4963;51.444;6.528;2022-10-16T01:25:25;6.63;;;2.80;;
9848;SDS011;4963;51.444;6.528;2022-10-16T01:28:00;4.10;;;3.10;;
9848;SDS011;4963;51.444;6.528;2022-10-16T01:30:29;5.13;;;2.70;;
9848;SDS011;4963;51.444;6.528;2022-10-16T01:32:59;4.17;;;2.60;;
9848;SDS011;4963;51.444;6.528;2022-10-16T01:35:35;3.07;;;2.50;;
9848;SDS011;4963;51.444;6.528;2022-10-16T01:38:05;4.60;;;3.00;;
9848;SDS011;4963;51.444;6.528;2022-10-16T01:40:34;5.27;;;2.80;;
9848;SDS011;4963;51.444;6.528;2022-10-16T01:43:06;4.13;;;2.73;;
9848;SDS011;4963;51.444;6.528;2022-10-16T01:45:38;4.00;;;2.63;;
9848;SDS011;4963;51.444;6.528;2022-10-16T01:48:07;5.67;;;2.53;;
9848;SDS011;4963;51.444;6.528;2022-10-16T01:50:38;4.83;;;2.30;;
9848;SDS011;4963;51.444;6.528;2022-10-16T01:53:08;7.23;;;2.70;;
9848;SDS011;4963;51.444;6.528;2022-10-16T01:55:39;3.47;;;2.50;;
9848;SDS011;4963;51.444;6.528;2022-10-16T01:58:12;4.57;;;2.63;;
9848;SDS011;4963;51.444;6.528;2022-10-16T02:00:40;4.83;;;2.40;;
9848;SDS011;4963;51.444;6.528;2022-10-16T02:03:09;4.23;;;2.10;;
9848;SDS011;4963;51.444;6.528;2022-10-16T02:05:39;5.73;;;2.43;;
9848;SDS011;4963;51.444;6.528;2022-10-16T02:08:10;3.60;;;2.30;;
9848;SDS011;4963;51.444;6.528;2022-10-16T02:10:37;3.87;;;2.20;;
9848;SDS011;4963;51.444;6.528;2022-10-16T02:13:05;5.90;;;2.47;;
9848;SDS011;4963;51.444;6.528;2022-10-16T02:15:36;5.17;;;2.37;;
9848;SDS011;4963;51.444;6.528;2022-10-16T02:18:03;2.90;;;2.27;;
9848;SDS011;4963;51.444;6.528;2022-10-16T02:20:32;2.10;;;1.90;;
9848;SDS011;4963;51.444;6.528;2022-10-16T02:23:02;3.20;;;1.97;;
9848;SDS011;4963;51.444;6.528;2022-10-16T02:25:30;4.77;;;2.20;;
9848;SDS011;4963;51.444;6.528;2022-10-16T02:28:00;2.87;;;2.07;;
9848;SDS011;4963;51.444;6.528;2022-10-16T02:30:30;3.33;;;2.20;;
9848;SDS011;4963;51.444;6.528;2022-10-16T02:33:02;2.67;;;2.00;;
9848;SDS011;4963;51.444;6.528;2022-10-16T02:35:32;4.83;;;2.60;;
9848;SDS011;4963;51.444;6.528;2022-10-16T02:38:00;5.23;;;2.00;;
9848;SDS011;4963;51.444;6.528;2022-10-16T02:40:27;3.17;;;1.80;;
9848;SDS011;4963;51.444;6.528;2022-10-16T02:42:54;2.87;;;1.70;;
9848;SDS011;4963;51.444;6.528;2022-10-16T02:45:22;5.70;;;2.03;;
9848;SDS011;4963;51.444;6.528;2022-10-16T02:47:49;2.33;;;1.83;;
9848;SDS011;4963;51.444;6.528;2022-10-16T02:50:18;2.70;;;2.00;;
9848;SDS011;4963;51.444;6.528;2022-10-16T02:52:44;2.53;;;1.60;;
9848;SDS011;4963;51.444;6.528;2022-10-16T02:55:11;2.90;;;1.60;;
9848;SDS011;4963;51.444;6.528;2022-10-16T02:57:38;3.13;;;1.97;;
9848;SDS011;4963;51.444;6.528;2022-10-16T03:00:05;2.83;;;1.80;;
9848;SDS011;4963;51.444;6.528;2022-10-16T03:02:33;3.23;;;1.60;;
9848;SDS011;4963;51.444;6.528;2022-10-16T03:05:00;2.93;;;1.80;;
9848;SDS011;4963;51.444;6.528;2022-10-16T03:07:28;2.40;;;1.40;;
9848;SDS011;4963;51.444;6.528;2022-10-16T03:09:55;4.33;;;1.60;;
9848;SDS011;4963;51.444;6.528;2022-10-16T03:12:25;2.83;;;1.67;;
9848;SDS011;4963;51.444;6.528;2022-10-16T03:14:52;2.43;;;1.77;;
9848;SDS011;4963;51.444;6.528;2022-10-16T03:17:19;7.93;;;1.87;;
9848;SDS011;4963;51.444;6.528;2022-10-16T03:19:45;4.10;;;1.77;;
9848;SDS011;4963;51.444;6.528;2022-10-16T03:22:12;3.77;;;1.77;;
9848;SDS011;4963;51.444;6.528;2022-10-16T03:24:40;3.93;;;1.80;;
9848;SDS011;4963;51.444;6.528;2022-10-16T03:27:07;2.30;;;1.77;;
9848;SDS011;4963;51.444;6.528;2022-10-16T03:29:34;3.63;;;1.73;;
9848;SDS011;4963;51.444;6.528;2022-10-16T03:32:01;2.57;;;1.57;;
9848;SDS011;4963;51.444;6.528;2022-10-16T03:34:27;3.33;;;1.60;;
9848;SDS011;4963;51.444;6.528;2022-10-16T03:36:54;5.20;;;1.53;;
9848;SDS011;4963;51.444;6.528;2022-10-16T03:39:21;4.70;;;1.63;;
9848;SDS011;4963;51.444;6.528;2022-10-16T03:41:49;2.77;;;1.57;;
9848;SDS011;4963;51.444;6.528;2022-10-16T03:44:16;2.87;;;1.90;;
9848;SDS011;4963;51.444;6.528;2022-10-16T03:46:42;4.27;;;1.90;;
9848;SDS011;4963;51.444;6.528;2022-10-16T03:49:09;4.03;;;1.70;;
9848;SDS011;4963;51.444;6.528;2022-10-16T03:51:36;6.50;;;1.77;;
9848;SDS011;4963;51.444;6.528;2022-10-16T03:54:03;2.77;;;1.43;;
9848;SDS011;4963;51.444;6.528;2022-10-16T03:56:30;2.07;;;1.47;;
9848;SDS011;4963;51.444;6.528;2022-10-16T03:58:58;2.57;;;1.60;;
9848;SDS011;4963;51.444;6.528;2022-10-16T04:01:25;6.43;;;1.67;;
9848;SDS011;4963;51.444;6.528;2022-10-16T04:03:52;3.23;;;1.63;;
9848;SDS011;4963;51.444;6.528;2022-10-16T04:06:18;7.67;;;1.60;;
9848;SDS011;4963;51.444;6.528;2022-10-16T04:08:45;2.73;;;1.40;;
9848;SDS011;4963;51.444;6.528;2022-10-16T04:11:12;5.07;;;1.47;;
9848;SDS011;4963;51.444;6.528;2022-10-16T04:13:39;1.97;;;1.70;;
9848;SDS011;4963;51.444;6.528;2022-10-16T04:16:07;1.57;;;1.40;;
9848;SDS011;4963;51.444;6.528;2022-10-16T04:18:34;4.57;;;1.67;;
9848;SDS011;4963;51.444;6.528;2022-10-16T04:21:04;2.37;;;1.30;;
9848;SDS011;4963;51.444;6.528;2022-10-16T04:23:32;3.60;;;1.60;;
9848;SDS011;4963;51.444;6.528;2022-10-16T04:25:59;2.27;;;1.83;;
9848;SDS011;4963;51.444;6.528;2022-10-16T04:28:26;2.87;;;1.70;;
9848;SDS011;4963;51.444;6.528;2022-10-16T04:30:53;1.97;;;1.70;;
9848;SDS011;4963;51.444;6.528;2022-10-16T04:33:22;2.40;;;1.60;;
9848;SDS011;4963;51.444;6.528;2022-10-16T04:35:55;2.80;;;1.50;;
9848;SDS011;4963;51.444;6.528;2022-10-16T04:38:23;2.73;;;1.50;;
9848;SDS011;4963;51.444;6.528;2022-10-16T04:40:49;2.70;;;1.70;;
9848;SDS011;4963;51.444;6.528;2022-10-16T04:43:16;2.10;;;1.73;;
9848;SDS011;4963;51.444;6.528;2022-10-16T04:45:43;2.40;;;1.60;;
9848;SDS011;4963;51.444;6.528;2022-10-16T04:48:10;2.40;;;1.60;;
9848;SDS011;4963;51.444;6.528;2022-10-16T04:50:38;2.23;;;1.50;;
9848;SDS011;4963;51.444;6.528;2022-10-16T04:53:05;4.00;;;1.60;;
9848;SDS011;4963;51.444;6.528;2022-10-16T04:55:32;4.63;;;2.00;;
9848;SDS011;4963;51.444;6.528;2022-10-16T04:57:59;3.47;;;1.40;;
9848;SDS011;4963;51.444;6.528;2022-10-16T05:00:25;4.47;;;1.67;;
9848;SDS011;4963;51.444;6.528;2022-10-16T05:02:52;2.23;;;1.43;;
9848;SDS011;4963;51.444;6.528;2022-10-16T05:05:19;2.80;;;1.53;;
9848;SDS011;4963;51.444;6.528;2022-10-16T05:07:48;2.70;;;1.80;;
9848;SDS011;4963;51.444;6.528;2022-10-16T05:10:15;3.63;;;1.70;;
9848;SDS011;4963;51.444;6.528;2022-10-16T05:12:42;4.10;;;1.40;;
9848;SDS011;4963;51.444;6.528;2022-10-16T05:15:09;2.43;;;1.40;;
9848;SDS011;4963;51.444;6.528;2022-10-16T05:17:36;1.80;;;1.40;;
9848;SDS011;4963;51.444;6.528;2022-10-16T05:20:03;2.37;;;1.57;;
9848;SDS011;4963;51.444;6.528;2022-10-16T05:22:31;4.07;;;1.70;;
9848;SDS011;4963;51.444;6.528;2022-10-16T05:24:59;3.13;;;1.70;;
9848;SDS011;4963;51.444;6.528;2022-10-16T05:27:25;2.97;;;1.20;;
9848;SDS011;4963;51.444;6.528;2022-10-16T05:29:52;3.50;;;1.63;;
9848;SDS011;4963;51.444;6.528;2022-10-16T05:32:19;1.70;;;1.60;;
9848;SDS011;4963;51.444;6.528;2022-10-16T05:34:46;1.93;;;1.37;;
9848;SDS011;4963;51.444;6.528;2022-10-16T05:37:12;2.73;;;1.93;;
9848;SDS011;4963;51.444;6.528;2022-10-16T05:39:39;3.67;;;1.70;;
9848;SDS011;4963;51.444;6.528;2022-10-16T05:42:07;3.50;;;1.87;;
9848;SDS011;4963;51.444;6.528;2022-10-16T05:44:34;2.53;;;1.73;;
9848;SDS011;4963;51.444;6.528;2022-10-16T05:47:01;2.40;;;1.57;;
9848;SDS011;4963;51.444;6.528;2022-10-16T05:49:27;4.23;;;2.00;;
9848;SDS011;4963;51.444;6.528;2022-10-16T05:51:54;4.73;;;1.80;;
9848;SDS011;4963;51.444;6.528;2022-10-16T05:54:21;2.37;;;1.90;;
9848;SDS011;4963;51.444;6.528;2022-10-16T05:56:48;2.37;;;1.80;;
9848;SDS011;4963;51.444;6.528;2022-10-16T05:59:16;1.87;;;1.50;;
9848;SDS011;4963;51.444;6.528;2022-10-16T06:01:43;2.67;;;1.77;;
9848;SDS011;4963;51.444;6.528;2022-10-16T06:04:09;3.47;;;2.17;;
9848;SDS011;4963;51.444;6.528;2022-10-16T06:06:36;2.10;;;1.90;;
9848;SDS011;4963;51.444;6.528;2022-10-16T06:09:03;4.93;;;1.53;;
9848;SDS011;4963;51.444;6.528;2022-10-16T06:11:31;3.70;;;1.50;;
9848;SDS011;4963;51.444;6.528;2022-10-16T06:13:59;3.30;;;1.70;;
9848;SDS011;4963;51.444;6.528;2022-10-16T06:16:33;5.20;;;1.90;;
9848;SDS011;4963;51.444;6.528;2022-10-16T06:19:01;3.47;;;2.00;;
9848;SDS011;4963;51.444;6.528;2022-10-16T06:21:31;4.03;;;1.70;;
9848;SDS011;4963;51.444;6.528;2022-10-16T06:23:58;3.40;;;1.90;;
9848;SDS011;4963;51.444;6.528;2022-10-16T06:26:25;2.50;;;1.80;;
9848;SDS011;4963;51.444;6.528;2022-10-16T06:28:54;2.80;;;1.80;;
9848;SDS011;4963;51.444;6.528;2022-10-16T06:31:21;2.30;;;1.77;;
9848;SDS011;4963;51.444;6.528;2022-10-16T06:33:53;2.93;;;2.00;;
9848;SDS011;4963;51.444;6.528;2022-10-16T06:36:21;2.30;;;2.10;;
9848;SDS011;4963;51.444;6.528;2022-10-16T06:38:48;2.40;;;1.83;;
9848;SDS011;4963;51.444;6.528;2022-10-16T06:41:16;2.77;;;1.97;;
9848;SDS011;4963;51.444;6.528;2022-10-16T06:43:44;2.40;;;2.00;;
9848;SDS011;4963;51.444;6.528;2022-10-16T06:46:11;4.60;;;2.27;;
9848;SDS011;4963;51.444;6.528;2022-10-16T06:48:39;3.07;;;1.87;;
9848;SDS011;4963;51.444;6.528;2022-10-16T06:51:09;3.73;;;2.40;;
9848;SDS011;4963;51.444;6.528;2022-10-16T06:53:39;4.50;;;2.53;;
9848;SDS011;4963;51.444;6.528;2022-10-16T06:56:07;2.77;;;2.00;;
9848;SDS011;4963;51.444;6.528;2022-10-16T06:58:34;4.90;;;2.97;;
9848;SDS011;4963;51.444;6.528;2022-10-16T07:01:01;2.50;;;2.30;;
9848;SDS011;4963;51.444;6.528;2022-10-16T07:03:28;4.20;;;2.13;;
9848;SDS011;4963;51.444;6.528;2022-10-16T07:05:55;5.67;;;2.50;;
9848;SDS011;4963;51.444;6.528;2022-10-16T07:08:23;3.10;;;2.50;;
9848;SDS011;4963;51.444;6.528;2022-10-16T07:10:57;3.50;;;2.83;;
9848;SDS011;4963;51.444;6.528;2022-10-16T07:13:25;3.00;;;2.70;;
9848;SDS011;4963;51.444;6.528;2022-10-16T07:15:52;3.23;;;2.87;;
9848;SDS011;4963;51.444;6.528;2022-10-16T07:18:18;3.53;;;2.67;;
9848;SDS011;4963;51.444;6.528;2022-10-16T07:20:45;3.03;;;2.60;;
9848;SDS011;4963;51.444;6.528;2022-10-16T07:23:12;3.17;;;2.60;;
9848;SDS011;4963;51.444;6.528;2022-10-16T07:25:40;3.37;;;2.77;;
9848;SDS011;4963;51.444;6.528;2022-10-16T07:28:07;3.00;;;2.60;;
9848;SDS011;4963;51.444;6.528;2022-10-16T07:30:34;4.03;;;2.87;;
9848;SDS011;4963;51.444;6.528;2022-10-16T07:33:02;4.77;;;2.90;;
9848;SDS011;4963;51.444;6.528;2022-10-16T07:35:29;3.40;;;3.10;;
9848;SDS011;4963;51.444;6.528;2022-10-16T07:37:56;5.00;;;2.60;;
9848;SDS011;4963;51.444;6.528;2022-10-16T07:40:23;5.20;;;2.87;;
9848;SDS011;4963;51.444;6.528;2022-10-16T07:42:53;4.73;;;2.90;;
9848;SDS011;4963;51.444;6.528;2022-10-16T07:45:20;2.57;;;2.37;;
9848;SDS011;4963;51.444;6.528;2022-10-16T07:47:47;4.17;;;2.93;;
9848;SDS011;4963;51.444;6.528;2022-10-16T07:50:13;3.60;;;2.63;;
9848;SDS011;4963;51.444;6.528;2022-10-16T07:52:40;4.10;;;2.60;;
9848;SDS011;4963;51.444;6.528;2022-10-16T07:55:07;4.30;;;2.40;;
9848;SDS011;4963;51.444;6.528;2022-10-16T07:57:34;3.83;;;2.30;;
9848;SDS011;4963;51.444;6.528;2022-10-16T08:00:03;3.17;;;2.30;;
9848;SDS011;4963;51.444;6.528;2022-10-16T08:02:30;2.33;;;2.03;;
9848;SDS011;4963;51.444;6.528;2022-10-16T08:04:57;5.63;;;2.27;;
9848;SDS011;4963;51.444;6.528;2022-10-16T08:07:24;5.57;;;2.40;;
9848;SDS011;4963;51.444;6.528;2022-10-16T08:09:51;3.67;;;2.30;;
9848;SDS011;4963;51.444;6.528;2022-10-16T08:12:18;4.00;;;2.20;;
9848;SDS011;4963;51.444;6.528;2022-10-16T08:14:44;3.50;;;2.13;;
9848;SDS011;4963;51.444;6.528;2022-10-16T08:17:14;4.23;;;2.03;;
9848;SDS011;4963;51.444;6.528;2022-10-16T08:19:44;3.43;;;1.83;;
9848;SDS011;4963;51.444;6.528;2022-10-16T08:22:11;5.07;;;2.03;;
9848;SDS011;4963;51.444;6.528;2022-10-16T08:24:38;2.67;;;1.80;;
9848;SDS011;4963;51.444;6.528;2022-10-16T08:27:05;2.10;;;1.70;;
9848;SDS011;4963;51.444;6.528;2022-10-16T08:29:32;2.10;;;1.53;;
9848;SDS011;4963;51.444;6.528;2022-10-16T08:31:59;2.97;;;1.70;;
9848;SDS011;4963;51.444;6.528;2022-10-16T08:34:27;5.47;;;1.67;;
9848;SDS011;4963;51.444;6.528;2022-10-16T08:36:54;3.27;;;1.80;;
9848;SDS011;4963;51.444;6.528;2022-10-16T08:39:20;5.97;;;2.10;;
9848;SDS011;4963;51.444;6.528;2022-10-16T08:42:04;2.57;;;1.87;;
9848;SDS011;4963;51.444;6.528;2022-10-16T08:44:57;3.93;;;1.63;;
9848;SDS011;4963;51.444;6.528;2022-10-16T08:47:35;6.90;;;2.00;;
9848;SDS011;4963;51.444;6.528;2022-10-16T08:50:13;2.57;;;1.73;;
9848;SDS011;4963;51.444;6.528;2022-10-16T08:52:43;3.13;;;1.67;;
9848;SDS011;4963;51.444;6.528;2022-10-16T08:55:16;6.47;;;1.90;;
9848;SDS011;4963;51.444;6.528;2022-10-16T08:57:54;2.30;;;1.50;;
9848;SDS011;4963;51.444;6.528;2022-10-16T09:00:21;2.90;;;1.33;;
9848;SDS011;4963;51.444;6.528;2022-10-16T09:02:49;3.27;;;1.70;;
9848;SDS011;4963;51.444;6.528;2022-10-16T09:05:24;3.30;;;1.57;;
9848;SDS011;4963;51.444;6.528;2022-10-16T09:08:09;2.80;;;1.57;;
9848;SDS011;4963;51.444;6.528;2022-10-16T09:10:43;4.47;;;1.60;;
9848;SDS011;4963;51.444;6.528;2022-10-16T09:13:19;4.87;;;1.73;;
9848;SDS011;4963;51.444;6.528;2022-10-16T09:15:52;2.83;;;1.43;;
9848;SDS011;4963;51.444;6.528;2022-10-16T09:18:26;4.77;;;1.50;;
9848;SDS011;4963;51.444;6.528;2022-10-16T09:20:59;3.40;;;1.57;;
9848;SDS011;4963;51.444;6.528;2022-10-16T09:23:36;3.60;;;1.30;;
9848;SDS011;4963;51.444;6.528;2022-10-16T09:26:03;5.93;;;1.70;;
9848;SDS011;4963;51.444;6.528;2022-10-16T09:28:35;3.70;;;1.50;;
9848;SDS011;4963;51.444;6.528;2022-10-16T09:31:02;1.70;;;1.33;;
9848;SDS011;4963;51.444;6.528;2022-10-16T09:33:32;2.93;;;1.37;;
9848;SDS011;4963;51.444;6.528;2022-10-16T09:36:04;3.03;;;1.37;;
9848;SDS011;4963;51.444;6.528;2022-10-16T09:38:32;3.50;;;1.33;;
9848;SDS011;4963;51.444;6.528;2022-10-16T09:41:01;3.90;;;1.53;;
9848;SDS011;4963;51.444;6.528;2022-10-16T09:43:32;2.17;;;1.33;;
9848;SDS011;4963;51.444;6.528;2022-10-16T09:46:05;1.90;;;1.27;;
9848;SDS011;4963;51.444;6.528;2022-10-16T09:48:36;1.97;;;1.33;;
9848;SDS011;4963;51.444;6.528;2022-10-16T09:51:06;3.03;;;1.50;;
9848;SDS011;4963;51.444;6.528;2022-10-16T09:53:44;5.00;;;1.20;;
9848;SDS011;4963;51.444;6.528;2022-10-16T09:56:20;3.93;;;1.37;;
9848;SDS011;4963;51.444;6.528;2022-10-16T09:58:49;4.50;;;1.43;;
9848;SDS011;4963;51.444;6.528;2022-10-16T10:01:17;4.27;;;1.60;;
9848;SDS011;4963;51.444;6.528;2022-10-16T10:03:45;2.27;;;1.23;;
9848;SDS011;4963;51.444;6.528;2022-10-16T10:06:22;4.27;;;1.50;;
9848;SDS011;4963;51.444;6.528;2022-10-16T10:08:57;5.60;;;1.53;;
9848;SDS011;4963;51.444;6.528;2022-10-16T10:11:42;3.23;;;1.30;;
9848;SDS011;4963;51.444;6.528;2022-10-16T10:14:16;2.23;;;1.47;;
9848;SDS011;4963;51.444;6.528;2022-10-16T10:16:46;5.50;;;1.33;;
9848;SDS011;4963;51.444;6.528;2022-10-16T10:19:14;3.30;;;1.30;;
9848;SDS011;4963;51.444;6.528;2022-10-16T10:21:43;2.70;;;1.27;;
9848;SDS011;4963;51.444;6.528;2022-10-16T10:24:11;3.50;;;1.70;;
9848;SDS011;4963;51.444;6.528;2022-10-16T10:26:39;3.13;;;1.33;;
9848;SDS011;4963;51.444;6.528;2022-10-16T10:29:12;3.70;;;1.30;;
9848;SDS011;4963;51.444;6.528;2022-10-16T10:31:51;6.47;;;1.50;;
9848;SDS011;4963;51.444;6.528;2022-10-16T10:34:34;2.23;;;1.23;;
9848;SDS011;4963;51.444;6.528;2022-10-16T10:37:22;5.17;;;1.40;;
9848;SDS011;4963;51.444;6.528;2022-10-16T10:40:00;4.00;;;1.40;;
9848;SDS011;4963;51.444;6.528;2022-10-16T10:42:33;2.47;;;1.27;;
9848;SDS011;4963;51.444;6.528;2022-10-16T10:45:11;2.60;;;1.27;;
9848;SDS011;4963;51.444;6.528;2022-10-16T10:47:53;2.37;;;1.23;;
9848;SDS011;4963;51.444;6.528;2022-10-16T10:50:31;2.90;;;1.20;;
9848;SDS011;4963;51.444;6.528;2022-10-16T10:53:09;3.87;;;1.47;;
9848;SDS011;4963;51.444;6.528;2022-10-16T10:55:46;3.37;;;1.30;;
9848;SDS011;4963;51.444;6.528;2022-10-16T10:58:32;2.80;;;1.30;;
9848;SDS011;4963;51.444;6.528;2022-10-16T11:01:21;2.40;;;1.13;;
9848;SDS011;4963;51.444;6.528;2022-10-16T11:03:58;2.70;;;1.23;;
9848;SDS011;4963;51.444;6.528;2022-10-16T11:06:39;1.97;;;1.17;;
9848;SDS011;4963;51.444;6.528;2022-10-16T11:09:11;7.17;;;3.10;;
9848;SDS011;4963;51.444;6.528;2022-10-16T11:11:42;6.30;;;2.07;;
9848;SDS011;4963;51.444;6.528;2022-10-16T11:14:13;3.27;;;1.67;;
9848;SDS011;4963;51.444;6.528;2022-10-16T11:16:44;5.03;;;1.90;;
9848;SDS011;4963;51.444;6.528;2022-10-16T11:19:20;4.33;;;1.37;;
9848;SDS011;4963;51.444;6.528;2022-10-16T11:21:55;3.97;;;1.70;;
9848;SDS011;4963;51.444;6.528;2022-10-16T11:24:31;4.43;;;1.43;;
9848;SDS011;4963;51.444;6.528;2022-10-16T11:27:05;2.80;;;1.40;;
9848;SDS011;4963;51.444;6.528;2022-10-16T11:29:34;3.47;;;1.20;;
9848;SDS011;4963;51.444;6.528;2022-10-16T11:32:12;6.33;;;1.60;;
9848;SDS011;4963;51.444;6.528;2022-10-16T11:34:47;3.38;;;1.10;;
9848;SDS011;4963;51.444;6.528;2022-10-16T11:37:18;5.00;;;1.63;;
9848;SDS011;4963;51.444;6.528;2022-10-16T11:39:49;3.40;;;1.48;;
9848;SDS011;4963;51.444;6.528;2022-10-16T11:42:20;4.70;;;1.57;;
9848;SDS011;4963;51.444;6.528;2022-10-16T11:44:53;4.87;;;1.43;;
9848;SDS011;4963;51.444;6.528;2022-10-16T11:47:27;1.93;;;1.20;;
9848;SDS011;4963;51.444;6.528;2022-10-16T11:50:00;3.35;;;1.70;;
9848;SDS011;4963;51.444;6.528;2022-10-16T11:52:30;3.87;;;1.40;;
9848;SDS011;4963;51.444;6.528;2022-10-16T11:55:05;4.82;;;1.30;;
9848;SDS011;4963;51.444;6.528;2022-10-16T11:57:42;3.22;;;1.30;;
9848;SDS011;4963;51.444;6.528;2022-10-16T12:00:17;3.43;;;1.03;;
9848;SDS011;4963;51.444;6.528;2022-10-16T12:02:50;5.10;;;1.20;;
9848;SDS011;4963;51.444;6.528;2022-10-16T12:05:25;4.30;;;1.52;;
9848;SDS011;4963;51.444;6.528;2022-10-16T12:08:02;2.22;;;1.38;;
9848;SDS011;4963;51.444;6.528;2022-10-16T12:10:36;3.25;;;1.52;;
9848;SDS011;4963;51.444;6.528;2022-10-16T12:13:03;3.88;;;1.13;;
9848;SDS011;4963;51.444;6.528;2022-10-16T12:15:31;3.03;;;1.17;;
9848;SDS011;4963;51.444;6.528;2022-10-16T12:17:59;4.65;;;1.50;;
9848;SDS011;4963;51.444;6.528;2022-10-16T12:20:27;2.13;;;1.00;;
9848;SDS011;4963;51.444;6.528;2022-10-16T12:22:57;2.25;;;0.98;;
9848;SDS011;4963;51.444;6.528;2022-10-16T12:25:27;2.58;;;1.08;;
9848;SDS011;4963;51.444;6.528;2022-10-16T12:28:02;6.63;;;1.33;;
9848;SDS011;4963;51.444;6.528;2022-10-16T12:30:31;2.90;;;1.20;;
9848;SDS011;4963;51.444;6.528;2022-10-16T12:33:01;3.45;;;1.10;;
9848;SDS011;4963;51.444;6.528;2022-10-16T12:35:30;2.67;;;1.25;;
9848;SDS011;4963;51.444;6.528;2022-10-16T12:38:06;1.40;;;0.95;;
9848;SDS011;4963;51.444;6.528;2022-10-16T12:40:39;3.95;;;1.17;;
9848;SDS011;4963;51.444;6.528;2022-10-16T12:43:23;2.55;;;1.08;;
9848;SDS011;4963;51.444;6.528;2022-10-16T12:46:00;3.35;;;1.00;;
9848;SDS011;4963;51.444;6.528;2022-10-16T12:48:30;2.50;;;1.40;;
9848;SDS011;4963;51.444;6.528;2022-10-16T12:50:57;2.95;;;1.27;;
9848;SDS011;4963;51.444;6.528;2022-10-16T12:53:35;1.45;;;0.90;;
9848;SDS011;4963;51.444;6.528;2022-10-16T12:56:04;3.40;;;1.30;;
9848;SDS011;4963;51.444;6.528;2022-10-16T12:58:45;2.53;;;1.20;;
9848;SDS011;4963;51.444;6.528;2022-10-16T13:01:29;2.25;;;1.15;;
9848;SDS011;4963;51.444;6.528;2022-10-16T13:04:18;2.95;;;1.60;;
9848;SDS011;4963;51.444;6.528;2022-10-16T13:07:00;3.67;;;1.10;;
9848;SDS011;4963;51.444;6.528;2022-10-16T13:09:39;3.78;;;1.42;;
9848;SDS011;4963;51.444;6.528;2022-10-16T13:12:20;3.10;;;1.25;;
9848;SDS011;4963;51.444;6.528;2022-10-16T13:15:08;2.45;;;1.38;;
9848;SDS011;4963;51.444;6.528;2022-10-16T13:17:48;1.85;;;1.10;;
9848;SDS011;4963;51.444;6.528;2022-10-16T13:20:24;6.18;;;1.35;;
9848;SDS011;4963;51.444;6.528;2022-10-16T13:22:59;3.65;;;1.15;;
9848;SDS011;4963;51.444;6.528;2022-10-16T13:25:37;3.70;;;1.02;;
9848;SDS011;4963;51.444;6.528;2022-10-16T13:28:12;3.83;;;1.40;;
9848;SDS011;4963;51.444;6.528;2022-10-16T13:30:41;2.78;;;1.10;;
9848;SDS011;4963;51.444;6.528;2022-10-16T13:33:13;3.08;;;1.45;;
9848;SDS011;4963;51.444;6.528;2022-10-16T13:35:47;2.67;;;1.17;;
9848;SDS011;4963;51.444;6.528;2022-10-16T13:38:16;2.38;;;1.30;;
9848;SDS011;4963;51.444;6.528;2022-10-16T13:40:48;2.00;;;1.10;;
9848;SDS011;4963;51.444;6.528;2022-10-16T13:43:21;2.95;;;1.33;;
9848;SDS011;4963;51.444;6.528;2022-10-16T13:45:56;4.20;;;1.20;;
9848;SDS011;4963;51.444;6.528;2022-10-16T13:48:24;3.45;;;1.00;;
9848;SDS011;4963;51.444;6.528;2022-10-16T13:50:58;1.75;;;0.90;;
9848;SDS011;4963;51.444;6.528;2022-10-16T13:53:38;3.08;;;1.17;;
9848;SDS011;4963;51.444;6.528;2022-10-16T13:56:06;2.40;;;0.90;;
9848;SDS011;4963;51.444;6.528;2022-10-16T13:58:36;2.28;;;1.00;;
9848;SDS011;4963;51.444;6.528;2022-10-16T14:01:04;2.45;;;1.08;;
9848;SDS011;4963;51.444;6.528;2022-10-16T14:03:41;2.60;;;1.33;;
9848;SDS011;4963;51.444;6.528;2022-10-16T14:06:11;2.55;;;1.20;;
9848;SDS011;4963;51.444;6.528;2022-10-16T14:08:42;3.92;;;1.38;;
9848;SDS011;4963;51.444;6.528;2022-10-16T14:11:11;1.90;;;1.00;;
9848;SDS011;4963;51.444;6.528;2022-10-16T14:13:39;2.90;;;1.27;;
9848;SDS011;4963;51.444;6.528;2022-10-16T14:16:11;2.72;;;1.10;;
9848;SDS011;4963;51.444;6.528;2022-10-16T14:18:45;3.33;;;1.30;;
9848;SDS011;4963;51.444;6.528;2022-10-16T14:21:22;4.07;;;1.10;;
9848;SDS011;4963;51.444;6.528;2022-10-16T14:23:49;3.08;;;1.40;;
9848;SDS011;4963;51.444;6.528;2022-10-16T14:26:17;2.25;;;1.08;;
9848;SDS011;4963;51.444;6.528;2022-10-16T14:28:46;1.42;;;1.02;;
9848;SDS011;4963;51.444;6.528;2022-10-16T14:31:25;3.15;;;1.13;;
9848;SDS011;4963;51.444;6.528;2022-10-16T14:33:54;4.18;;;1.42;;
9848;SDS011;4963;51.444;6.528;2022-10-16T14:36:21;3.45;;;1.20;;
9848;SDS011;4963;51.444;6.528;2022-10-16T14:38:51;3.72;;;1.17;;
9848;SDS011;4963;51.444;6.528;2022-10-16T14:41:24;1.65;;;0.93;;
9848;SDS011;4963;51.444;6.528;2022-10-16T14:43:51;1.88;;;1.00;;
9848;SDS011;4963;51.444;6.528;2022-10-16T14:46:21;2.38;;;0.98;;
9848;SDS011;4963;51.444;6.528;2022-10-16T14:48:56;1.45;;;1.00;;
9848;SDS011;4963;51.444;6.528;2022-10-16T14:51:27;2.42;;;1.20;;
9848;SDS011;4963;51.444;6.528;2022-10-16T14:53:53;4.13;;;1.27;;
9848;SDS011;4963;51.444;6.528;2022-10-16T14:56:21;6.80;;;1.70;;
9848;SDS011;4963;51.444;6.528;2022-10-16T14:58:50;4.45;;;1.40;;
9848;SDS011;4963;51.444;6.528;2022-10-16T15:01:18;1.75;;;1.00;;
9848;SDS011;4963;51.444;6.528;2022-10-16T15:03:45;1.52;;;1.05;;
9848;SDS011;4963;51.444;6.528;2022-10-16T15:06:14;2.22;;;1.17;;
9848;SDS011;4963;51.444;6.528;2022-10-16T15:08:41;2.67;;;1.30;;
9848;SDS011;4963;51.444;6.528;2022-10-16T15:11:09;4.50;;;1.58;;
9848;SDS011;4963;51.444;6.528;2022-10-16T15:13:38;2.70;;;1.60;;
9848;SDS011;4963;51.444;6.528;2022-10-16T15:16:07;5.82;;;1.98;;
9848;SDS011;4963;51.444;6.528;2022-10-16T15:18:36;8.25;;;1.48;;
9848;SDS011;4963;51.444;6.528;2022-10-16T15:21:03;5.15;;;1.50;;
9848;SDS011;4963;51.444;6.528;2022-10-16T15:23:31;3.60;;;1.40;;
9848;SDS011;4963;51.444;6.528;2022-10-16T15:25:58;5.32;;;1.65;;
9848;SDS011;4963;51.444;6.528;2022-10-16T15:28:25;4.13;;;2.08;;
9848;SDS011;4963;51.444;6.528;2022-10-16T15:30:53;4.95;;;2.72;;
9848;SDS011;4963;51.444;6.528;2022-10-16T15:33:22;7.28;;;3.40;;